createdAt,value
2018-12-14T00:02:08.496Z,100392.11
2018-12-14T00:04:34.440Z,100385.33
2018-12-14T00:07:00.428Z,100391.90
2018-12-14T00:09:26.382Z,100393.23
2018-12-14T00:11:52.341Z,100385.47
2018-12-14T00:14:18.324Z,100382.94
2018-12-14T00:16:44.274Z,100383.31
2018-12-14T00:19:10.262Z,100381.05
2018-12-14T00:21:36.221Z,100385.45
2018-12-14T00:24:02.188Z,100381.89
2018-12-14T00:26:28.152Z,100383.06
2018-12-14T00:28:54.131Z,100386.88
2018-12-14T00:31:20.095Z,100385.49
2018-12-14T00:33:46.092Z,100387.03
2018-12-14T00:36:12.027Z,100384.90
2018-12-14T00:38:38.028Z,100384.81
2018-12-14T00:41:03.970Z,100385.45
2018-12-14T00:43:29.953Z,100387.66
2018-12-14T00:45:56.052Z,100388.23
2018-12-14T00:48:22.015Z,100396.23
2018-12-14T00:50:47.958Z,100397.34
2018-12-14T00:53:13.929Z,100400.50
2018-12-14T00:55:39.886Z,100406.45
2018-12-14T00:58:05.853Z,100409.58
2018-12-14T01:00:31.815Z,100411.36
2018-12-14T01:02:57.781Z,100416.40
2018-12-14T01:05:23.759Z,100415.33
2018-12-14T01:07:49.720Z,100418.12
2018-12-14T01:10:15.687Z,100418.22
2018-12-14T01:12:41.651Z,100410.40
2018-12-14T01:15:07.635Z,100411.48
2018-12-14T01:17:33.595Z,100414.54
2018-12-14T01:19:59.575Z,100410.59
2018-12-14T01:22:25.536Z,100408.41
2018-12-14T01:24:51.511Z,100410.61
2018-12-14T01:27:17.467Z,100415.48
2018-12-14T01:29:43.420Z,100413.39
2018-12-14T01:32:09.880Z,100415.63
2018-12-14T01:34:35.855Z,100406.13
2018-12-14T01:37:01.831Z,100413.86
2018-12-14T01:39:27.843Z,100415.66
2018-12-14T01:41:53.788Z,100409.36
2018-12-14T01:44:19.747Z,100408.86
2018-12-14T01:46:45.689Z,100413.02
2018-12-14T01:49:11.629Z,100408.28
2018-12-14T01:51:37.600Z,100403.09
2018-12-14T01:54:03.560Z,100401.98
2018-12-14T01:56:29.504Z,100397.02
2018-12-14T01:58:55.460Z,100404.00
2018-12-14T02:01:21.415Z,100406.11
2018-12-14T02:03:47.364Z,100400.62
2018-12-14T02:06:13.364Z,100405.60
2018-12-14T02:08:39.321Z,100405.80
2018-12-14T02:11:05.284Z,100403.87
2018-12-14T02:13:31.240Z,100405.38
2018-12-14T02:15:57.207Z,100405.16
2018-12-14T02:18:23.160Z,100399.40
2018-12-14T02:20:49.128Z,100399.02
2018-12-14T02:23:15.095Z,100401.44
2018-12-14T02:25:41.106Z,100395.02
2018-12-14T02:28:07.048Z,100394.80
2018-12-14T02:30:33.031Z,100392.33
2018-12-14T02:32:58.965Z,100395.14
2018-12-14T02:35:24.959Z,100393.30
2018-12-14T02:37:50.927Z,100389.73
2018-12-14T02:40:16.875Z,100393.14
2018-12-14T02:42:42.834Z,100390.55
2018-12-14T02:45:08.830Z,100385.54
2018-12-14T02:47:34.772Z,100391.89
2018-12-14T02:50:00.720Z,100392.33
2018-12-14T02:52:26.665Z,100390.55
2018-12-14T02:54:52.633Z,100390.45
2018-12-14T02:57:18.596Z,100391.99
2018-12-14T02:59:44.538Z,100387.05
2018-12-14T03:02:10.505Z,100388.47
2018-12-14T03:04:36.448Z,100393.14
2018-12-14T03:07:02.421Z,100385.52
2018-12-14T03:09:28.367Z,100391.64
2018-12-14T03:11:54.309Z,100386.39
2018-12-14T03:14:20.269Z,100386.37
2018-12-14T03:16:46.260Z,100386.03
2018-12-14T03:19:13.113Z,100381.23
2018-12-14T03:21:39.073Z,100385.91
2018-12-14T03:24:05.036Z,100380.63
2018-12-14T03:26:31.014Z,100382.98
2018-12-14T03:28:56.961Z,100379.17
2018-12-14T03:31:22.933Z,100378.44
2018-12-14T03:33:48.898Z,100384.27
2018-12-14T03:36:14.864Z,100376.33
2018-12-14T03:38:40.825Z,100383.20
2018-12-14T03:41:06.784Z,100384.43
2018-12-14T03:43:33.371Z,100387.45
2018-12-14T03:46:00.447Z,100386.00
2018-12-14T03:48:26.398Z,100382.87
2018-12-14T03:50:52.367Z,100391.04
2018-12-14T03:53:18.311Z,100388.45
2018-12-14T03:58:16.650Z,100392.19
2018-12-14T04:00:42.623Z,100392.11
2018-12-14T04:03:08.626Z,100394.19
2018-12-14T04:05:34.578Z,100404.73
2018-12-14T04:08:00.562Z,100401.52
2018-12-14T04:10:26.523Z,100400.61
2018-12-14T04:12:52.472Z,100403.56
2018-12-14T04:15:18.530Z,100399.70
2018-12-14T04:17:44.566Z,100403.61
2018-12-14T04:20:10.510Z,100405.21
2018-12-14T04:22:37.449Z,100401.62
2018-12-14T04:25:03.416Z,100407.44
2018-12-14T04:27:29.388Z,100405.70
2018-12-14T04:29:55.356Z,100402.48
2018-12-14T04:32:21.330Z,100408.41
2018-12-14T04:34:48.359Z,100408.78
2018-12-14T04:37:16.741Z,100413.84
2018-12-14T04:39:42.773Z,100407.68
2018-12-14T04:42:08.811Z,100409.33
2018-12-14T04:44:34.779Z,100407.28
2018-12-14T04:47:00.845Z,100414.66
2018-12-14T04:49:26.813Z,100400.98
2018-12-14T04:51:52.874Z,100407.02
2018-12-14T04:54:18.875Z,100401.91
2018-12-14T04:56:44.928Z,100401.92
2018-12-14T04:59:10.892Z,100405.16
2018-12-14T05:01:36.858Z,100404.66
2018-12-14T05:04:02.806Z,100400.66
2018-12-14T05:06:28.988Z,100407.20
2018-12-14T05:08:54.970Z,100405.08
2018-12-14T05:11:20.982Z,100407.39
2018-12-14T05:13:46.940Z,100408.42
2018-12-14T05:16:12.987Z,100406.39
2018-12-14T05:18:38.967Z,100406.63
2018-12-14T05:21:04.922Z,100404.69
2018-12-14T05:23:30.864Z,100406.04
2018-12-14T05:25:56.821Z,100401.43
2018-12-14T05:28:22.784Z,100409.85
2018-12-14T05:30:48.727Z,100409.55
2018-12-14T05:33:14.820Z,100412.08
2018-12-14T05:35:40.802Z,100417.30
2018-12-14T05:38:06.750Z,100416.59
2018-12-14T05:40:32.728Z,100413.04
2018-12-14T05:43:02.597Z,100412.93
2018-12-14T05:45:26.652Z,100419.20
2018-12-14T05:47:52.615Z,100418.52
2018-12-14T05:50:18.613Z,100422.95
2018-12-14T05:52:44.603Z,100425.75
2018-12-14T05:55:10.537Z,100420.02
2018-12-14T05:57:36.512Z,100419.76
2018-12-14T06:00:02.459Z,100425.91
2018-12-14T06:02:28.440Z,100427.28
2018-12-14T06:04:54.408Z,100424.00
2018-12-14T06:07:20.381Z,100429.22
2018-12-14T06:09:46.322Z,100430.27
2018-12-14T06:12:12.382Z,100436.39
2018-12-14T06:14:38.350Z,100434.18
2018-12-14T06:17:04.316Z,100438.99
2018-12-14T06:19:30.270Z,100440.44
2018-12-14T06:21:56.231Z,100445.36
2018-12-14T06:24:22.187Z,100441.50
2018-12-14T06:26:48.208Z,100446.13
2018-12-14T06:29:14.156Z,100449.21
2018-12-14T06:31:40.116Z,100440.30
2018-12-14T06:34:06.049Z,100447.42
2018-12-14T06:36:32.008Z,100452.13
2018-12-14T06:38:59.724Z,100451.08
2018-12-14T06:41:25.683Z,100456.63
2018-12-14T06:43:51.643Z,100456.67
2018-12-14T06:46:17.605Z,100460.53
2018-12-14T06:48:44.548Z,100456.42
2018-12-14T06:51:11.438Z,100461.53
2018-12-14T06:53:37.415Z,100464.14
2018-12-14T06:56:03.365Z,100463.22
2018-12-14T06:58:29.363Z,100469.58
2018-12-14T07:00:55.445Z,100468.14
2018-12-14T07:03:22.236Z,100476.86
2018-12-14T07:05:48.175Z,100472.81
2018-12-14T07:08:14.360Z,100469.60
2018-12-14T07:10:40.308Z,100478.28
2018-12-14T07:13:07.360Z,100482.52
2018-12-14T07:15:33.299Z,100483.12
2018-12-14T07:17:59.268Z,100478.69
2018-12-14T07:20:26.179Z,100480.23
2018-12-14T07:22:52.188Z,100484.95
2018-12-14T07:25:18.156Z,100488.80
2018-12-14T07:27:45.240Z,100489.48
2018-12-14T07:30:11.209Z,100480.09
2018-12-14T07:32:38.140Z,100486.70
2018-12-14T07:35:04.371Z,100491.64
2018-12-14T07:37:30.320Z,100492.78
2018-12-14T07:39:56.287Z,100494.55
2018-12-14T07:42:22.243Z,100494.02
2018-12-14T07:44:48.290Z,100496.02
2018-12-14T07:47:14.492Z,100499.11
2018-12-14T07:49:40.437Z,100504.75
2018-12-14T07:52:07.665Z,100503.35
2018-12-14T07:54:33.598Z,100499.48
2018-12-14T07:56:59.563Z,100509.95
2018-12-14T07:59:25.554Z,100508.23
2018-12-14T08:01:51.517Z,100509.95
2018-12-14T08:04:17.488Z,100508.20
2018-12-14T08:06:43.431Z,100506.84
2018-12-14T08:09:09.395Z,100514.44
2018-12-14T08:11:35.344Z,100511.81
2018-12-14T08:14:01.345Z,100512.34
2018-12-14T08:16:27.382Z,100513.14
2018-12-14T08:18:53.353Z,100518.83
2018-12-14T08:21:19.308Z,100522.56
2018-12-14T08:23:45.264Z,100522.53
2018-12-14T08:26:11.220Z,100527.12
2018-12-14T08:28:37.196Z,100534.63
2018-12-14T08:31:03.140Z,100531.11
2018-12-14T08:33:29.100Z,100529.23
2018-12-14T08:35:55.060Z,100541.72
2018-12-14T08:38:21.006Z,100546.73
2018-12-14T08:40:47.022Z,100548.16
2018-12-14T08:43:12.979Z,100551.26
2018-12-14T08:45:38.932Z,100550.08
2018-12-14T08:48:04.884Z,100554.34
2018-12-14T08:50:30.839Z,100551.66
2018-12-14T08:52:56.801Z,100556.72
2018-12-14T08:55:22.759Z,100555.06
2018-12-14T08:57:48.704Z,100556.51
2018-12-14T09:00:14.656Z,100560.06
2018-12-14T09:02:40.591Z,100566.56
2018-12-14T09:05:06.542Z,100561.97
2018-12-14T09:07:32.483Z,100563.21
2018-12-14T09:09:58.427Z,100562.73
2018-12-14T09:12:24.368Z,100564.89
2018-12-14T09:14:50.306Z,100561.18
2018-12-14T09:17:16.321Z,100573.63
2018-12-14T09:19:42.308Z,100579.13
2018-12-14T09:22:08.244Z,100576.92
2018-12-14T09:24:34.203Z,100578.98
2018-12-14T09:27:00.154Z,100572.33
2018-12-14T09:29:26.143Z,100565.59
2018-12-14T09:31:52.099Z,100566.12
2018-12-14T09:34:18.065Z,100571.00
2018-12-14T09:36:44.043Z,100571.91
2018-12-14T09:39:09.981Z,100574.69
2018-12-14T09:41:35.940Z,100573.58
2018-12-14T09:44:01.927Z,100572.77
2018-12-14T09:46:27.887Z,100576.17
2018-12-14T09:48:53.829Z,100578.02
2018-12-14T09:51:19.800Z,100573.69
2018-12-14T09:53:45.757Z,100584.00
2018-12-14T09:56:11.731Z,100582.45
2018-12-14T09:58:37.690Z,100585.77
2018-12-14T10:01:03.675Z,100587.03
2018-12-14T10:03:29.618Z,100582.50
2018-12-14T10:05:55.583Z,100576.08
2018-12-14T10:08:21.630Z,100579.17
2018-12-14T10:10:47.629Z,100575.56
2018-12-14T10:13:13.595Z,100578.94
2018-12-14T10:15:39.564Z,100578.69
2018-12-14T10:18:05.527Z,100577.22
2018-12-14T10:20:31.521Z,100575.53
2018-12-14T10:25:34.146Z,100573.25
2018-12-14T10:28:00.139Z,100577.83
2018-12-14T10:30:26.145Z,100577.61
2018-12-14T10:32:52.119Z,100571.42
2018-12-14T10:35:18.068Z,100568.85
2018-12-14T10:37:45.091Z,100574.48
2018-12-14T10:40:11.038Z,100565.80
2018-12-14T10:42:36.994Z,100563.86
2018-12-14T10:45:02.979Z,100564.00
2018-12-14T10:47:28.962Z,100562.05
2018-12-14T10:49:54.938Z,100559.73
2018-12-14T10:52:20.913Z,100561.83
2018-12-14T10:54:46.952Z,100564.78
2018-12-14T10:57:16.154Z,100563.44
2018-12-14T10:59:40.924Z,100566.73
2018-12-14T11:02:06.896Z,100568.13
2018-12-14T11:04:32.869Z,100566.67
2018-12-14T11:06:58.879Z,100569.57
2018-12-14T11:09:24.832Z,100562.68
2018-12-14T11:11:50.815Z,100567.11
2018-12-14T11:14:16.823Z,100557.05
2018-12-14T11:16:42.811Z,100567.64
2018-12-14T11:19:08.758Z,100564.84
2018-12-14T11:21:34.757Z,100571.27
2018-12-14T11:24:00.737Z,100564.80
2018-12-14T11:26:26.726Z,100565.08
2018-12-14T11:28:52.673Z,100571.88
2018-12-14T11:31:18.663Z,100569.24
2018-12-14T11:33:44.635Z,100572.46
2018-12-14T11:36:10.715Z,100577.33
2018-12-14T11:38:36.669Z,100579.66
2018-12-14T11:41:02.607Z,100581.54
2018-12-14T11:43:28.580Z,100580.38
2018-12-14T11:45:54.557Z,100582.18
2018-12-14T11:48:20.535Z,100575.97
2018-12-14T11:50:46.491Z,100581.29
2018-12-14T11:53:12.463Z,100581.75
2018-12-14T11:55:38.422Z,100582.19
2018-12-14T11:58:04.352Z,100586.27
2018-12-14T12:00:30.323Z,100584.00
2018-12-14T12:02:56.299Z,100580.91
2018-12-14T12:05:22.295Z,100579.61
2018-12-14T12:07:48.270Z,100578.39
2018-12-14T12:10:15.064Z,100581.57
2018-12-14T12:12:41.055Z,100581.02
2018-12-14T12:15:07.031Z,100584.70
2018-12-14T12:17:33.002Z,100584.52
2018-12-14T12:22:35.418Z,100582.84
2018-12-14T12:25:01.378Z,100583.33
2018-12-14T12:27:27.353Z,100581.48
2018-12-14T12:29:53.367Z,100579.01
2018-12-14T12:32:19.366Z,100578.30
2018-12-14T12:34:45.334Z,100578.01
2018-12-14T12:37:11.528Z,100572.53
2018-12-14T12:39:37.481Z,100577.99
2018-12-14T12:42:03.502Z,100574.73
2018-12-14T12:44:33.551Z,100573.22
2018-12-14T12:46:57.453Z,100577.38
2018-12-14T12:49:23.417Z,100585.23
2018-12-14T12:51:49.389Z,100579.84
2018-12-14T12:54:15.330Z,100582.33
2018-12-14T12:56:41.288Z,100579.78
2018-12-14T12:59:07.246Z,100580.22
2018-12-14T13:01:35.326Z,100587.22
2018-12-14T13:04:01.754Z,100587.19
2018-12-14T13:06:27.705Z,100575.95
2018-12-14T13:08:53.697Z,100579.98
2018-12-14T13:11:19.680Z,100581.64
2018-12-14T13:13:45.805Z,100582.70
2018-12-14T13:16:11.769Z,100587.50
2018-12-14T13:18:37.760Z,100591.44
2018-12-14T13:21:04.353Z,100593.16
2018-12-14T13:23:30.363Z,100600.13
2018-12-14T13:25:56.344Z,100598.17
2018-12-14T13:28:22.339Z,100600.23
2018-12-14T13:30:48.319Z,100594.62
2018-12-14T13:33:15.258Z,100596.87
2018-12-14T13:35:41.222Z,100591.62
2018-12-14T13:38:07.252Z,100595.66
2018-12-14T13:40:33.274Z,100604.66
2018-12-14T13:42:59.286Z,100602.00
2018-12-14T13:45:26.182Z,100603.03
2018-12-14T13:55:26.587Z,100605.70
2018-12-14T13:57:56.123Z,100593.44
2018-12-14T14:00:22.146Z,100598.70
2018-12-14T14:02:48.285Z,100597.83
2018-12-14T14:05:14.230Z,100600.88
2018-12-14T14:07:43.271Z,100599.52
2018-12-14T14:12:40.704Z,100595.88
2018-12-14T14:15:06.747Z,100589.66
2018-12-14T14:17:32.700Z,100600.94
2018-12-14T14:19:58.692Z,100600.05
2018-12-14T14:22:26.385Z,100601.55
2018-12-14T14:24:52.382Z,100602.41
2018-12-14T14:27:18.687Z,100608.95
2018-12-14T14:29:44.772Z,100605.50
2018-12-14T14:32:10.751Z,100609.91
2018-12-14T14:34:36.704Z,100617.06
2018-12-14T14:42:05.232Z,100625.27
2018-12-14T14:44:31.172Z,100624.45
2018-12-14T14:46:57.149Z,100627.56
2018-12-14T14:49:23.111Z,100624.98
2018-12-14T14:51:49.065Z,100628.06
2018-12-14T14:54:17.636Z,100628.89
2018-12-14T14:56:43.617Z,100627.10
2018-12-14T14:59:09.588Z,100642.05
2018-12-14T15:01:35.562Z,100637.45
2018-12-14T15:04:01.532Z,100640.81
2018-12-14T15:06:27.477Z,100643.85
2018-12-14T15:08:53.434Z,100642.61
2018-12-14T15:11:19.389Z,100644.09
2018-12-14T15:13:47.428Z,100644.78
2018-12-14T15:16:13.375Z,100649.48
2018-12-14T15:18:39.382Z,100645.91
2018-12-14T15:21:05.329Z,100651.80
2018-12-14T15:23:31.296Z,100649.30
2018-12-14T15:25:57.250Z,100652.77
2018-12-14T15:28:23.267Z,100655.83
2018-12-14T15:30:49.221Z,100657.84
2018-12-14T15:33:15.198Z,100662.96
2018-12-14T15:35:41.154Z,100657.08
2018-12-14T15:38:07.152Z,100655.34
2018-12-14T15:40:33.147Z,100668.16
2018-12-14T15:43:00.017Z,100666.98
2018-12-14T15:47:57.536Z,100667.40
2018-12-14T15:50:23.652Z,100669.95
2018-12-14T15:52:49.657Z,100673.22
2018-12-14T15:55:15.945Z,100671.86
2018-12-14T15:57:41.928Z,100675.23
2018-12-14T16:00:08.976Z,100677.69
2018-12-14T16:02:34.969Z,100677.43
2018-12-14T16:05:02.124Z,100678.65
2018-12-14T16:07:28.096Z,100679.72
2018-12-14T16:09:54.109Z,100681.84
2018-12-14T16:12:20.107Z,100682.30
2018-12-14T16:14:46.094Z,100682.77
2018-12-14T16:17:12.082Z,100680.87
2018-12-14T16:19:38.041Z,100688.41
2018-12-14T16:22:04.664Z,100686.75
2018-12-14T16:27:03.466Z,100694.00
2018-12-14T16:29:29.481Z,100691.39
2018-12-14T16:31:55.471Z,100683.97
2018-12-14T16:34:21.418Z,100685.80
2018-12-14T16:36:47.353Z,100688.08
2018-12-14T16:39:13.315Z,100687.44
2018-12-14T16:41:39.328Z,100691.08
2018-12-14T16:44:05.360Z,100692.84
2018-12-14T16:46:31.323Z,100696.06
2018-12-14T16:48:57.269Z,100692.45
2018-12-14T16:51:23.247Z,100693.59
2018-12-14T16:53:49.178Z,100698.94
2018-12-14T16:56:15.134Z,100696.30
2018-12-14T16:58:41.185Z,100694.96
2018-12-14T17:16:15.448Z,100693.35
2018-12-14T17:18:47.551Z,100696.50
2018-12-14T17:21:13.508Z,100697.64
2018-12-14T17:23:39.464Z,100700.02
2018-12-14T17:26:05.419Z,100697.86
2018-12-14T17:28:31.441Z,100705.23
2018-12-14T17:30:57.421Z,100698.05
2018-12-14T17:33:24.241Z,100699.34
2018-12-14T17:35:50.235Z,100700.35
2018-12-14T17:38:16.227Z,100700.03
2018-12-14T17:40:42.266Z,100696.25
2018-12-14T17:43:08.970Z,100697.89
2018-12-14T17:45:39.781Z,100694.70
2018-12-14T17:48:02.988Z,100702.38
2018-12-14T17:50:28.952Z,100703.10
2018-12-14T17:52:54.909Z,100699.88
2018-12-14T17:55:20.882Z,100703.30
2018-12-14T17:57:46.847Z,100709.16
2018-12-14T18:00:12.809Z,100703.72
2018-12-14T18:02:39.854Z,100703.91
2018-12-14T18:05:05.807Z,100700.42
2018-12-14T18:07:31.752Z,100703.42
2018-12-14T18:09:57.756Z,100707.13
2018-12-14T18:12:23.842Z,100705.08
2018-12-14T18:14:49.812Z,100709.91
2018-12-14T18:17:15.779Z,100708.31
2018-12-14T18:19:43.084Z,100711.99
2018-12-14T18:22:09.249Z,100710.33
2018-12-14T18:24:35.218Z,100719.02
2018-12-14T18:27:01.179Z,100719.33
2018-12-14T18:29:27.380Z,100720.92
2018-12-14T18:31:53.352Z,100721.23
2018-12-14T18:34:19.330Z,100719.44
2018-12-14T18:36:45.337Z,100722.60
2018-12-14T18:39:11.297Z,100719.70
2018-12-14T18:41:38.373Z,100720.17
2018-12-14T18:44:04.359Z,100726.09
2018-12-14T18:46:32.062Z,100730.59
2018-12-14T18:48:58.009Z,100731.28
2018-12-14T18:51:24.140Z,100735.94
2018-12-14T18:53:50.150Z,100741.55
2018-12-14T18:56:16.139Z,100743.31
2018-12-14T18:58:42.147Z,100745.33
2018-12-14T19:01:08.156Z,100753.54
2018-12-14T19:03:34.149Z,100752.36
2018-12-14T19:06:00.350Z,100760.69
2018-12-14T19:08:27.056Z,100758.47
2018-12-14T19:10:53.041Z,100763.80
2018-12-14T19:13:19.019Z,100769.03
2018-12-14T19:15:45.461Z,100762.11
2018-12-14T19:18:11.515Z,100763.94
2018-12-14T19:20:37.652Z,100765.27
2018-12-14T19:23:03.664Z,100766.13
2018-12-14T19:25:29.641Z,100772.37
2018-12-14T19:27:55.622Z,100769.86
2018-12-14T19:30:21.674Z,100769.41
2018-12-14T19:32:47.735Z,100769.95
2018-12-14T19:35:13.961Z,100768.09
2018-12-14T19:37:41.546Z,100766.02
2018-12-14T19:40:07.733Z,100767.91
2018-12-14T19:42:33.719Z,100774.50
2018-12-14T19:44:59.764Z,100772.34
2018-12-14T19:47:25.774Z,100775.17
2018-12-14T19:49:51.914Z,100776.58
2018-12-14T19:52:19.978Z,100782.84
2018-12-14T19:54:46.031Z,100781.77
2018-12-14T19:57:15.468Z,100782.70
2018-12-14T19:59:41.623Z,100781.66
2018-12-14T20:02:07.694Z,100781.44
2018-12-14T20:07:09.708Z,100789.91
2018-12-14T20:09:35.760Z,100796.48
2018-12-14T20:12:01.844Z,100795.18
2018-12-14T20:14:27.890Z,100789.45
2018-12-14T20:16:54.001Z,100794.52
2018-12-14T20:21:54.688Z,100791.08
2018-12-14T20:24:22.799Z,100799.06
2018-12-14T20:26:48.808Z,100799.22
2018-12-14T20:29:15.623Z,100793.08
2018-12-14T20:34:13.073Z,100796.97
2018-12-14T20:36:39.031Z,100797.94
2018-12-14T20:39:05.132Z,100793.59
2018-12-14T20:41:31.072Z,100795.65
2018-12-14T20:43:57.055Z,100805.51
2018-12-14T20:46:23.130Z,100800.94
2018-12-14T20:48:49.084Z,100802.77
2018-12-14T20:51:15.068Z,100802.25
2018-12-14T20:53:41.032Z,100797.57
2018-12-14T20:56:07.016Z,100798.27
2018-12-14T20:58:33.158Z,100799.03
2018-12-14T21:00:59.136Z,100802.09
2018-12-14T21:03:25.093Z,100798.27
2018-12-14T21:05:51.056Z,100798.05
2018-12-14T21:08:17.095Z,100797.62
2018-12-14T21:10:43.046Z,100803.78
2018-12-14T21:13:09.016Z,100796.95
2018-12-14T21:15:34.958Z,100797.28
2018-12-14T21:18:00.945Z,100793.70
2018-12-14T21:20:26.904Z,100794.69
2018-12-14T21:22:52.844Z,100796.45
2018-12-14T21:25:18.802Z,100801.27
2018-12-14T21:27:44.781Z,100800.80
2018-12-14T21:30:10.719Z,100795.92
2018-12-14T21:32:36.688Z,100801.52
2018-12-14T21:35:02.654Z,100800.14
2018-12-14T21:37:28.613Z,100802.95
2018-12-14T21:39:54.849Z,100803.97
2018-12-14T21:42:20.812Z,100803.67
2018-12-14T21:44:46.847Z,100807.38
2018-12-14T21:47:12.852Z,100795.23
2018-12-14T21:49:38.919Z,100804.81
2018-12-14T21:52:04.911Z,100802.64
2018-12-14T21:54:30.861Z,100805.87
2018-12-14T21:56:56.801Z,100804.05
2018-12-14T21:59:22.742Z,100803.22
2018-12-14T22:01:48.707Z,100811.93
2018-12-14T22:04:14.695Z,100813.14
2018-12-14T22:06:40.645Z,100806.77
2018-12-14T22:09:06.601Z,100814.99
2018-12-14T22:11:32.569Z,100812.14
2018-12-14T22:13:58.568Z,100817.77
2018-12-14T22:16:24.534Z,100813.34
2018-12-14T22:18:50.547Z,100818.27
2018-12-14T22:21:16.516Z,100818.97
2018-12-14T22:23:42.499Z,100822.69
2018-12-14T22:26:08.441Z,100827.48
2018-12-14T22:28:34.392Z,100823.84
2018-12-14T22:31:00.341Z,100824.41
2018-12-14T22:33:26.427Z,100823.82
2018-12-14T22:35:52.376Z,100823.05
2018-12-14T22:38:21.506Z,100825.89
2018-12-14T22:40:47.456Z,100822.78
2018-12-14T22:43:13.417Z,100822.02
2018-12-14T22:45:39.370Z,100820.44
2018-12-14T22:48:05.358Z,100813.28
2018-12-14T22:50:31.298Z,100812.11
2018-12-14T22:52:57.357Z,100809.72
2018-12-14T22:55:23.289Z,100807.44
2018-12-14T22:57:49.260Z,100805.04
2018-12-14T23:00:15.238Z,100811.30
2018-12-14T23:02:41.231Z,100806.77
2018-12-14T23:05:07.168Z,100805.91
2018-12-14T23:07:33.202Z,100814.61
2018-12-14T23:09:59.188Z,100814.80
2018-12-14T23:12:25.185Z,100819.62
2018-12-14T23:14:51.128Z,100818.99
2018-12-14T23:17:17.088Z,100820.86
2018-12-14T23:19:43.062Z,100812.97
2018-12-14T23:22:08.996Z,100813.12
2018-12-14T23:24:34.991Z,100814.12
2018-12-14T23:27:00.929Z,100818.14
2018-12-14T23:29:26.899Z,100816.03
2018-12-14T23:31:52.931Z,100819.27
2018-12-14T23:34:18.924Z,100820.27
2018-12-14T23:36:45.070Z,100813.11
2018-12-14T23:39:11.139Z,100814.02
2018-12-14T23:41:37.104Z,100815.86
2018-12-14T23:44:03.119Z,100816.08
2018-12-14T23:46:29.053Z,100817.45
2018-12-14T23:48:55.033Z,100817.33
2018-12-14T23:51:21.084Z,100818.54
2018-12-14T23:53:47.023Z,100818.81
2018-12-14T23:56:12.975Z,100817.34
2018-12-14T23:58:38.937Z,100811.61
